Time;durP1;ratioP1;P1;durP2;ratioP2;P2;SDS_P1;SDS_P2;PMS_P1;PMS_P2;Temp;Humidity;BMP_temperature;BMP_pressure;BME280_temperature;BME280_humidity;BME280_pressure;Samples;Min_cycle;Max_cycle;Signal;HPM_P1;HPM_P2
2022/06/17 00:00:28;;;;;;;;;;;;;;;27.77;33.13;101043.84;5038926;28;1906;-39
2022/06/17 00:02:53;;;;;;;;;;;;;;;27.75;33.07;101044.03;5057852;28;1088;-40
2022/06/17 00:05:19;;;;;;;;;;;;;;;27.72;33.28;101036.28;5057604;28;1227;-40
2022/06/17 00:07:44;;;;;;;;;;;;;;;27.71;33.03;101035.44;5055251;28;1315;-40
2022/06/17 00:10:17;;;;;;;;;;;;;;;27.74;33.00;101032.38;5057331;28;1097;-39
2022/06/17 00:12:42;;;;;;;;;;;;;;;27.69;33.15;101026.69;5039251;28;1201;-40
2022/06/17 00:15:12;;;;;;;;;;;;;;;27.65;33.34;101035.28;5054897;28;1530;-40
2022/06/17 00:17:37;;;;;;;;;;;;;;;27.53;33.25;101037.56;5057629;28;881;-40
2022/06/17 00:20:06;;;;;;;;;;;;;;;27.35;35.11;101034.13;5055832;28;1941;-40
2022/06/17 00:22:31;;;;;;;;;;;;;;;27.20;34.69;101033.19;5046118;28;1522;-37
2022/06/17 00:24:56;;;;;;;;;;;;;;;27.37;34.10;101029.41;5056634;28;1019;-35
2022/06/17 00:27:22;;;;;;;;;;;;;;;27.41;33.77;101029.84;5049550;28;950;-38
2022/06/17 00:29:47;;;;;;;;;;;;;;;27.39;33.50;101021.94;5048197;28;1476;-37
2022/06/17 00:32:12;;;;;;;;;;;;;;;27.41;33.56;101015.53;5052393;28;1044;-38
2022/06/17 00:34:38;;;;;;;;;;;;;;;27.48;33.33;101019.19;5050011;28;1247;-37
2022/06/17 00:37:03;;;;;;;;;;;;;;;27.49;33.55;101018.19;5054462;28;980;-39
2022/06/17 00:39:32;;;;;;;;;;;;;;;27.54;33.49;101026.59;5052143;28;1960;-38
2022/06/17 00:42:03;;;;;;;;;;;;;;;27.41;33.99;101021.75;5057115;28;851;-39
2022/06/17 00:44:47;;;;;;;;;;;;;;;27.45;33.86;101024.94;5038090;28;1176;-37
2022/06/17 00:47:21;;;;;;;;;;;;;;;27.37;33.42;101021.28;5057058;28;1045;-34
2022/06/17 00:49:48;;;;;;;;;;;;;;;27.38;34.10;101020.25;5050601;28;1032;-40
2022/06/17 00:52:21;;;;;;;;;;;;;;;27.40;33.54;101020.09;5033713;28;999;-39
2022/06/17 00:54:49;;;;;;;;;;;;;;;27.39;33.84;101013.84;5029780;28;1033;-39
2022/06/17 00:57:17;;;;;;;;;;;;;;;27.38;33.88;101008.59;5054900;28;1044;-38
2022/06/17 00:59:42;;;;;;;;;;;;;;;27.39;33.68;101004.91;5053639;28;1959;-37
2022/06/17 01:02:08;;;;;;;;;;;;;;;27.46;33.47;101007.72;5057002;28;1210;-38
2022/06/17 01:04:42;;;;;;;;;;;;;;;27.43;33.47;101005.38;5054690;28;1017;-36
2022/06/17 01:07:13;;;;;;;;;;;;;;;27.40;33.59;101014.69;5056358;28;867;-37
2022/06/17 01:09:57;;;;;;;;;;;;;;;27.43;33.53;101010.75;5055656;28;1021;-36
2022/06/17 01:12:23;;;;;;;;;;;;;;;27.42;33.53;101001.00;5045952;28;930;-38
2022/06/17 01:14:49;;;;;;;;;;;;;;;27.43;33.52;101013.47;5050489;28;1036;-38
2022/06/17 01:17:15;;;;;;;;;;;;;;;27.44;33.72;101018.72;5051267;28;1035;-41
2022/06/17 01:19:42;;;;;;;;;;;;;;;27.45;34.04;101011.44;5056482;28;1882;-38
2022/06/17 01:22:13;;;;;;;;;;;;;;;27.39;33.94;101007.59;5056251;28;1220;-39
2022/06/17 01:24:38;;;;;;;;;;;;;;;27.40;33.95;101001.16;5053620;28;1251;-38
2022/06/17 01:27:04;;;;;;;;;;;;;;;27.39;33.80;101007.59;5037901;28;1271;-37
2022/06/17 01:29:30;;;;;;;;;;;;;;;27.43;33.66;101003.50;5054452;28;1057;-36
2022/06/17 01:31:56;;;;;;;;;;;;;;;27.42;33.70;101006.41;5055660;28;1001;-39
2022/06/17 01:34:21;;;;;;;;;;;;;;;27.45;33.62;101003.34;5038582;28;1172;-39
2022/06/17 01:36:46;;;;;;;;;;;;;;;27.47;33.55;100993.19;5049474;28;1065;-38
2022/06/17 01:39:13;;;;;;;;;;;;;;;27.43;33.00;100992.69;5044446;28;1029;-36
2022/06/17 01:41:38;;;;;;;;;;;;;;;27.39;33.33;100994.09;5051089;28;1902;-38
2022/06/17 01:44:05;;;;;;;;;;;;;;;27.43;32.83;100990.00;5037768;28;1021;-37
2022/06/17 01:46:35;;;;;;;;;;;;;;;27.42;33.55;100984.78;5031972;28;1009;-38
2022/06/17 01:49:02;;;;;;;;;;;;;;;27.43;33.07;100981.06;5054744;28;1049;-37
2022/06/17 01:51:27;;;;;;;;;;;;;;;27.41;33.40;100977.72;5034502;28;1120;-39
2022/06/17 01:53:55;;;;;;;;;;;;;;;27.41;33.17;100978.53;5053597;28;1091;-39
2022/06/17 01:56:21;;;;;;;;;;;;;;;27.41;33.07;100977.72;5037005;28;1041;-39
2022/06/17 01:58:51;;;;;;;;;;;;;;;27.39;33.22;100976.00;5037581;28;1145;-39
2022/06/17 02:01:16;;;;;;;;;;;;;;;27.39;33.15;100977.88;5031621;28;1943;-37
2022/06/17 02:03:52;;;;;;;;;;;;;;;27.38;33.25;100974.34;5028094;28;1021;-38
2022/06/17 02:06:20;;;;;;;;;;;;;;;27.34;33.40;100974.88;5052836;28;898;-38
2022/06/17 02:08:45;;;;;;;;;;;;;;;27.39;33.20;100975.19;5050068;28;1168;-39
2022/06/17 02:11:11;;;;;;;;;;;;;;;27.35;33.01;100974.69;5037787;28;921;-39
2022/06/17 02:13:36;;;;;;;;;;;;;;;27.37;33.13;100966.41;5034735;28;1068;-38
2022/06/17 02:16:02;;;;;;;;;;;;;;;27.42;32.82;100964.03;5053660;28;981;-38
2022/06/17 02:18:27;;;;;;;;;;;;;;;27.36;32.64;100970.97;5036316;28;1137;-37
2022/06/17 02:20:53;;;;;;;;;;;;;;;27.35;32.89;100973.84;5054193;28;1886;-36
2022/06/17 02:23:19;;;;;;;;;;;;;;;27.35;32.96;100971.16;5032076;28;1036;-38
2022/06/17 02:25:45;;;;;;;;;;;;;;;27.38;33.09;100973.50;5047206;28;1060;-37
2022/06/17 02:28:11;;;;;;;;;;;;;;;27.34;32.79;100977.59;5050419;28;1017;-39
2022/06/17 02:30:36;;;;;;;;;;;;;;;27.31;33.22;100970.66;5051688;28;1009;-37
2022/06/17 02:33:02;;;;;;;;;;;;;;;27.30;32.85;100982.50;5050857;28;1076;-36
2022/06/17 02:35:33;;;;;;;;;;;;;;;27.32;32.82;100974.22;5036129;28;1037;-37
2022/06/17 02:37:58;;;;;;;;;;;;;;;27.34;33.03;100978.41;5053481;28;1265;-39
2022/06/17 02:40:30;;;;;;;;;;;;;;;27.35;32.92;100973.84;5054946;28;1955;-38
2022/06/17 02:42:55;;;;;;;;;;;;;;;27.32;33.22;100983.16;5033167;28;1139;-37
2022/06/17 02:45:22;;;;;;;;;;;;;;;27.29;33.01;100988.09;5051454;28;1399;-35
2022/06/17 02:47:47;;;;;;;;;;;;;;;27.28;33.12;100981.00;5035645;28;1092;-38
2022/06/17 02:50:17;;;;;;;;;;;;;;;27.31;33.10;100986.06;5052146;28;883;-38
2022/06/17 02:52:42;;;;;;;;;;;;;;;27.30;33.50;100985.19;5055142;28;1001;-36
2022/06/17 02:55:15;;;;;;;;;;;;;;;27.29;33.15;100980.81;5038497;28;1010;-39
2022/06/17 02:57:40;;;;;;;;;;;;;;;27.35;33.12;100984.66;5057225;28;1076;-38
2022/06/17 03:00:09;;;;;;;;;;;;;;;27.32;33.49;100990.41;5056012;28;1914;-39
2022/06/17 03:02:34;;;;;;;;;;;;;;;27.31;33.45;100989.56;5058347;28;1113;-38
2022/06/17 03:05:00;;;;;;;;;;;;;;;27.32;33.43;100985.00;5056441;28;1068;-36
2022/06/17 03:07:26;;;;;;;;;;;;;;;27.31;33.22;100989.56;5059121;28;1001;-39
2022/06/17 03:09:51;;;;;;;;;;;;;;;27.32;33.28;100990.41;5037992;28;1199;-37
2022/06/17 03:12:18;;;;;;;;;;;;;;;27.32;33.33;100995.81;5058582;28;1073;-37
2022/06/17 03:14:58;;;;;;;;;;;;;;;26.94;32.70;100989.25;5038023;28;1218;-37
2022/06/17 03:17:24;;;;;;;;;;;;;;;26.78;32.35;100990.16;5051235;28;1056;-39
2022/06/17 03:19:49;;;;;;;;;;;;;;;26.62;32.02;100988.38;5040360;28;1926;-38
2022/06/17 03:22:14;;;;;;;;;;;;;;;26.57;32.81;100996.97;5036204;28;1018;-40
2022/06/17 03:24:43;;;;;;;;;;;;;;;26.28;34.38;100991.13;5054435;28;1048;-39
2022/06/17 03:27:13;;;;;;;;;;;;;;;26.06;35.41;100989.97;5055709;28;950;-39
2022/06/17 03:29:38;;;;;;;;;;;;;;;26.02;32.63;100984.09;5035965;28;1048;-39
2022/06/17 03:32:05;;;;;;;;;;;;;;;25.70;32.49;100980.38;5038964;28;1018;-39
2022/06/17 03:34:34;;;;;;;;;;;;;;;25.26;34.55;100981.44;5038146;28;1210;-39
2022/06/17 03:37:02;;;;;;;;;;;;;;;25.05;35.14;100975.53;5039856;28;1019;-39
2022/06/17 03:39:37;;;;;;;;;;;;;;;25.22;34.84;100985.50;5057206;28;1251;-38
2022/06/17 03:42:05;;;;;;;;;;;;;;;25.36;34.61;100976.75;5058860;28;1087;-36
2022/06/17 03:44:34;;;;;;;;;;;;;;;25.24;34.96;100976.22;5037886;28;1140;-38
2022/06/17 03:47:04;;;;;;;;;;;;;;;25.04;35.05;100973.00;5038744;28;1260;-38
2022/06/17 03:49:40;;;;;;;;;;;;;;;25.02;35.50;100975.88;5039819;28;1017;-39
2022/06/17 03:52:11;;;;;;;;;;;;;;;25.00;36.08;100971.63;5056896;28;1100;-39
2022/06/17 03:54:36;;;;;;;;;;;;;;;24.93;36.33;100971.44;5033477;28;1403;-38
2022/06/17 03:57:01;;;;;;;;;;;;;;;24.96;37.14;100964.91;5057552;28;1109;-36
2022/06/17 03:59:27;;;;;;;;;;;;;;;25.51;36.60;100966.19;5037779;28;1280;-41
2022/06/17 04:01:54;;;;;;;;;;;;;;;26.13;34.78;100968.53;5039665;28;1906;-42
2022/06/17 04:04:21;;;;;;;;;;;;;;;26.31;34.48;100970.22;5039094;28;2475;-41
2022/06/17 04:06:48;;;;;;;;;;;;;;;26.28;35.93;100974.09;5032544;28;2031;-40
2022/06/17 04:09:17;;;;;;;;;;;;;;;26.23;35.30;100965.66;5049562;28;2139;-42
2022/06/17 04:11:44;;;;;;;;;;;;;;;26.24;34.91;100972.75;5053378;28;1886;-43
2022/06/17 04:14:19;;;;;;;;;;;;;;;26.33;34.43;100963.66;5046794;28;1968;-40
2022/06/17 04:16:46;;;;;;;;;;;;;;;26.38;34.45;100966.69;5055592;28;2001;-40
2022/06/17 04:19:12;;;;;;;;;;;;;;;26.42;34.69;100964.50;5036176;28;1893;-40
2022/06/17 04:21:38;;;;;;;;;;;;;;;26.51;34.51;100957.19;5057142;28;1883;-42
2022/06/17 04:24:06;;;;;;;;;;;;;;;26.46;34.23;100967.69;5057207;28;1072;-42
2022/06/17 04:26:31;;;;;;;;;;;;;;;26.53;34.25;100964.09;5037432;28;1163;-39
2022/06/17 04:28:58;;;;;;;;;;;;;;;26.50;33.99;100963.59;5036702;28;1057;-39
2022/06/17 04:31:25;;;;;;;;;;;;;;;26.51;34.08;100962.59;5056892;28;1043;-41
2022/06/17 04:33:54;;;;;;;;;;;;;;;26.63;34.43;100961.22;5056720;28;1041;-42
2022/06/17 04:36:24;;;;;;;;;;;;;;;26.62;34.67;100961.38;5038586;28;1022;-41
2022/06/17 04:38:55;;;;;;;;;;;;;;;26.68;34.46;100962.53;5039087;28;1070;-41
2022/06/17 04:41:21;;;;;;;;;;;;;;;26.72;34.32;100971.97;5057397;28;1959;-42
2022/06/17 04:43:47;;;;;;;;;;;;;;;26.77;34.43;100970.44;5039128;28;950;-42
2022/06/17 04:46:14;;;;;;;;;;;;;;;26.76;34.25;100966.03;5021811;28;1293;-42
2022/06/17 04:48:39;;;;;;;;;;;;;;;26.78;34.10;100961.31;5038422;28;1985;-42
2022/06/17 04:51:05;;;;;;;;;;;;;;;26.85;33.94;100963.31;5054882;28;1026;-40
2022/06/17 04:53:30;;;;;;;;;;;;;;;26.87;34.09;100958.56;5033277;28;1037;-42
2022/06/17 04:55:55;;;;;;;;;;;;;;;26.88;33.67;100955.69;5057070;28;1065;-43
2022/06/17 04:58:22;;;;;;;;;;;;;;;26.83;33.89;100962.63;5036239;28;1061;-42
2022/06/17 05:00:54;;;;;;;;;;;;;;;26.85;34.00;100961.44;5055926;28;1909;-42
2022/06/17 05:03:19;;;;;;;;;;;;;;;26.89;34.03;100959.25;5056374;28;1151;-41
2022/06/17 05:05:45;;;;;;;;;;;;;;;27.00;33.74;100966.94;5038451;28;1174;-42
2022/06/17 05:08:21;;;;;;;;;;;;;;;26.98;34.09;100971.69;5050440;28;1008;-40
2022/06/17 05:10:49;;;;;;;;;;;;;;;27.02;33.90;100972.19;5055999;28;1513;-40
2022/06/17 05:13:44;;;;;;;;;;;;;;;26.93;34.33;100973.22;5029559;28;1029;-41
2022/06/17 05:16:12;;;;;;;;;;;;;;;26.88;34.20;100973.75;5035498;28;1174;-41
2022/06/17 05:18:37;;;;;;;;;;;;;;;26.90;34.00;100977.97;5053576;28;2532;-41
2022/06/17 05:21:03;;;;;;;;;;;;;;;26.95;33.79;100979.28;5054699;28;1890;-42
2022/06/17 05:23:28;;;;;;;;;;;;;;;26.98;33.82;100977.06;5036741;28;1187;-41
2022/06/17 05:25:53;;;;;;;;;;;;;;;27.02;33.71;100978.44;5056884;28;1152;-41
2022/06/17 05:28:19;;;;;;;;;;;;;;;27.22;33.66;100977.16;5055584;28;1084;-41
2022/06/17 05:30:46;;;;;;;;;;;;;;;27.30;33.46;100976.25;5056571;28;1104;-42
2022/06/17 05:33:12;;;;;;;;;;;;;;;27.27;33.45;100982.84;5038136;28;1013;-42
2022/06/17 05:35:37;;;;;;;;;;;;;;;27.18;33.37;100978.50;5049749;28;889;-38
2022/06/17 05:38:03;;;;;;;;;;;;;;;27.28;33.57;100978.31;5045348;28;1180;-40
2022/06/17 05:40:28;;;;;;;;;;;;;;;27.25;33.34;100968.69;5051325;28;1922;-41
2022/06/17 05:42:53;;;;;;;;;;;;;;;27.39;32.89;100967.09;5048443;28;1108;-41
2022/06/17 05:45:20;;;;;;;;;;;;;;;27.43;33.18;100973.78;5052425;28;985;-41
2022/06/17 05:47:45;;;;;;;;;;;;;;;27.51;32.94;100976.44;5050801;28;1128;-40
2022/06/17 05:50:11;;;;;;;;;;;;;;;27.49;32.96;100969.53;5054702;28;2943;-42
2022/06/17 05:52:53;;;;;;;;;;;;;;;27.55;33.31;100970.66;5053899;28;1111;-41
2022/06/17 05:55:18;;;;;;;;;;;;;;;27.47;33.68;100968.88;5055670;28;1112;-42
2022/06/17 05:57:44;;;;;;;;;;;;;;;27.53;34.22;100970.84;5056304;28;1171;-41
2022/06/17 06:00:09;;;;;;;;;;;;;;;27.56;33.30;100970.47;5049351;28;1905;-42
2022/06/17 06:02:34;;;;;;;;;;;;;;;27.57;33.25;100965.94;5051333;28;1021;-42
2022/06/17 06:05:00;;;;;;;;;;;;;;;27.63;32.98;100965.19;5051741;28;1075;-41
2022/06/17 06:07:25;;;;;;;;;;;;;;;27.49;32.62;100967.66;5051754;28;1495;-43
2022/06/17 06:09:51;;;;;;;;;;;;;;;27.52;33.41;100966.47;5050789;28;1134;-42
2022/06/17 06:12:17;;;;;;;;;;;;;;;27.46;32.84;100965.31;5051510;28;1118;-42
2022/06/17 06:14:43;;;;;;;;;;;;;;;27.31;33.28;100961.75;5053716;28;1025;-40
2022/06/17 06:17:09;;;;;;;;;;;;;;;27.45;33.18;100965.50;5052850;28;1179;-42
2022/06/17 06:19:35;;;;;;;;;;;;;;;27.59;32.22;100966.59;5036931;28;2676;-43
2022/06/17 06:22:00;;;;;;;;;;;;;;;27.68;31.55;100968.22;5055168;28;1903;-40
2022/06/17 06:24:25;;;;;;;;;;;;;;;27.71;32.11;100967.03;5049392;28;1056;-42
2022/06/17 06:26:51;;;;;;;;;;;;;;;27.58;33.58;100971.16;5052980;28;1054;-42
2022/06/17 06:29:16;;;;;;;;;;;;;;;27.42;32.54;100958.63;5055312;28;1239;-42
2022/06/17 06:31:41;;;;;;;;;;;;;;;27.42;32.69;100952.38;5051982;28;1157;-42
2022/06/17 06:34:07;;;;;;;;;;;;;;;27.57;32.16;100958.69;5054642;28;1219;-42
2022/06/17 06:36:32;;;;;;;;;;;;;;;27.64;32.01;100956.09;5049897;28;1141;-42
2022/06/17 06:38:58;;;;;;;;;;;;;;;27.69;31.70;100953.72;5054626;28;1247;-42
2022/06/17 06:41:23;;;;;;;;;;;;;;;27.87;31.54;100953.38;5054735;28;1964;-41
2022/06/17 06:43:48;;;;;;;;;;;;;;;27.79;31.79;100950.75;5055227;28;1278;-42
2022/06/17 06:46:15;;;;;;;;;;;;;;;27.73;32.95;100946.91;5049431;28;1155;-42
2022/06/17 06:48:40;;;;;;;;;;;;;;;27.87;31.99;100952.53;5050623;28;1955;-41
2022/06/17 06:51:06;;;;;;;;;;;;;;;27.59;32.15;100942.28;5049243;28;1388;-41
2022/06/17 06:53:31;;;;;;;;;;;;;;;27.54;32.80;100944.69;5050014;28;997;-42
2022/06/17 06:55:56;;;;;;;;;;;;;;;27.74;32.31;100937.75;5046906;28;962;-42
2022/06/17 06:58:22;;;;;;;;;;;;;;;27.94;32.17;100939.97;5050676;28;1013;-42
2022/06/17 07:00:51;;;;;;;;;;;;;;;28.06;31.82;100939.53;5051712;28;1973;-42
2022/06/17 07:03:17;;;;;;;;;;;;;;;28.08;31.77;100940.16;5055101;28;1048;-41
2022/06/17 07:05:43;;;;;;;;;;;;;;;28.10;31.79;100940.81;5031347;28;1005;-42
2022/06/17 07:08:12;;;;;;;;;;;;;;;28.13;31.93;100939.63;5049758;28;1001;-42
2022/06/17 07:10:38;;;;;;;;;;;;;;;28.15;32.10;100946.50;5050284;28;1056;-39
2022/06/17 07:13:04;;;;;;;;;;;;;;;28.13;31.56;100943.16;5051191;28;1081;-41
2022/06/17 07:15:29;;;;;;;;;;;;;;;28.10;32.10;100941.66;5050462;28;989;-42
2022/06/17 07:17:54;;;;;;;;;;;;;;;28.07;32.20;100952.00;5054582;28;2536;-41
2022/06/17 07:20:20;;;;;;;;;;;;;;;28.03;32.04;100950.72;5052766;28;1956;-42
2022/06/17 07:22:46;;;;;;;;;;;;;;;28.09;32.01;100945.38;5053829;28;1192;-41
2022/06/17 07:25:11;;;;;;;;;;;;;;;27.83;33.52;100941.25;5055022;28;1068;-42
2022/06/17 07:27:36;;;;;;;;;;;;;;;27.72;32.57;100939.84;5049763;28;1193;-42
2022/06/17 07:30:01;;;;;;;;;;;;;;;27.93;32.93;100943.69;5052595;28;851;-42
2022/06/17 07:32:27;;;;;;;;;;;;;;;28.10;32.47;100935.41;5057492;28;938;-41
2022/06/17 07:34:52;;;;;;;;;;;;;;;28.15;32.10;100942.97;5055333;28;1159;-41
2022/06/17 07:40:04;;;;;;;;;;;;;;;28.29;31.85;100930.47;5057503;28;1906;-42
2022/06/17 07:42:37;;;;;;;;;;;;;;;28.40;31.24;100934.59;5057820;28;1160;-42
2022/06/17 07:45:06;;;;;;;;;;;;;;;28.39;31.29;100932.94;5058489;28;1250;-43
2022/06/17 07:47:31;;;;;;;;;;;;;;;28.40;31.07;100934.59;5056426;28;1017;-43
2022/06/17 07:49:57;;;;;;;;;;;;;;;28.39;31.00;100930.22;5056692;28;2403;-43
2022/06/17 07:52:22;;;;;;;;;;;;;;;28.35;30.61;100927.03;5051569;28;1049;-42
2022/06/17 07:54:47;;;;;;;;;;;;;;;28.43;30.73;100937.78;5053155;28;1100;-42
2022/06/17 07:57:16;;;;;;;;;;;;;;;28.46;30.80;100934.69;5050482;28;1091;-42
2022/06/17 07:59:41;;;;;;;;;;;;;;;28.50;30.67;100927.03;5053690;28;1035;-42
2022/06/17 08:02:07;;;;;;;;;;;;;;;28.48;30.86;100926.38;5051885;28;1991;-41
2022/06/17 08:04:32;;;;;;;;;;;;;;;28.50;31.02;100923.47;5055879;28;1061;-42
2022/06/17 08:06:57;;;;;;;;;;;;;;;28.54;30.63;100925.66;5057086;28;1183;-42
2022/06/17 08:09:23;;;;;;;;;;;;;;;28.57;30.67;100927.13;5057256;28;982;-41
2022/06/17 08:11:48;;;;;;;;;;;;;;;28.59;30.81;100925.06;5057845;28;1144;-42
2022/06/17 08:14:14;;;;;;;;;;;;;;;28.58;30.96;100935.06;5058674;28;990;-42
2022/06/17 08:16:39;;;;;;;;;;;;;;;28.56;30.82;100931.69;5058288;28;942;-42
2022/06/17 08:19:07;;;;;;;;;;;;;;;28.69;30.51;100928.34;5053086;28;2486;-42
2022/06/17 08:21:32;;;;;;;;;;;;;;;28.75;30.70;100929.44;5057398;28;1906;-41
2022/06/17 08:23:57;;;;;;;;;;;;;;;28.68;30.76;100932.06;5050372;28;1127;-42
2022/06/17 08:26:23;;;;;;;;;;;;;;;28.68;30.47;100937.47;5056706;28;1076;-41
2022/06/17 08:28:48;;;;;;;;;;;;;;;28.73;30.32;100926.06;5057346;28;1021;-42
2022/06/17 08:31:13;;;;;;;;;;;;;;;28.75;30.30;100929.44;5052668;28;906;-42
2022/06/17 08:33:39;;;;;;;;;;;;;;;28.82;30.39;100930.34;5056993;28;922;-42
2022/06/17 08:36:08;;;;;;;;;;;;;;;28.81;30.46;100934.06;5030515;28;997;-42
2022/06/17 08:38:34;;;;;;;;;;;;;;;28.76;30.42;100931.09;5053130;28;1079;-43
2022/06/17 08:41:00;;;;;;;;;;;;;;;28.93;30.06;100939.00;5052408;28;1902;-42
2022/06/17 08:43:26;;;;;;;;;;;;;;;28.92;29.96;100932.75;5055756;28;1154;-42
2022/06/17 08:45:51;;;;;;;;;;;;;;;28.93;29.85;100937.13;5054299;28;989;-42
2022/06/17 08:48:35;;;;;;;;;;;;;;;28.92;30.06;100938.19;5054212;28;2527;-43
2022/06/17 08:51:03;;;;;;;;;;;;;;;28.96;30.12;100935.94;5051762;28;1139;-43
2022/06/17 08:53:30;;;;;;;;;;;;;;;28.97;29.70;100940.34;5051636;28;954;-42
2022/06/17 08:56:03;;;;;;;;;;;;;;;28.76;29.15;100930.28;5056503;28;1270;-42
2022/06/17 08:58:28;;;;;;;;;;;;;;;28.91;30.03;100931.06;5038200;28;1294;-42
2022/06/17 09:00:57;;;;;;;;;;;;;;;28.91;29.69;100932.94;5057193;28;1978;-41
2022/06/17 09:03:24;;;;;;;;;;;;;;;29.14;29.54;100934.69;5056878;28;1279;-39
2022/06/17 09:06:08;;;;;;;;;;;;;;;29.11;29.80;100927.78;5056834;28;1172;-41
2022/06/17 09:08:39;;;;;;;;;;;;;;;29.06;30.09;100924.81;5054728;28;1145;-41
2022/06/17 09:11:07;;;;;;;;;;;;;;;29.06;30.34;100922.91;5056817;28;1263;-42
2022/06/17 09:13:32;;;;;;;;;;;;;;;29.04;30.35;100925.00;5057038;28;1113;-40
2022/06/17 09:16:17;;;;;;;;;;;;;;;29.04;30.32;100925.00;5056667;28;1251;-41
2022/06/17 09:18:43;;;;;;;;;;;;;;;29.06;30.50;100922.09;5054314;28;1948;-41
2022/06/17 09:21:11;;;;;;;;;;;;;;;29.04;30.84;100925.00;5038498;28;1906;-40
2022/06/17 09:23:37;;;;;;;;;;;;;;;29.04;30.79;100918.75;5055261;28;1152;-42
2022/06/17 09:26:03;;;;;;;;;;;;;;;28.97;30.67;100918.66;5054636;28;1152;-40
2022/06/17 09:28:33;;;;;;;;;;;;;;;28.94;31.40;100916.31;5050798;28;1060;-41
2022/06/17 09:31:05;;;;;;;;;;;;;;;28.99;31.74;100922.03;5055907;28;1057;-40
2022/06/17 09:33:36;;;;;;;;;;;;;;;28.98;31.38;100920.34;5035992;28;1081;-41
2022/06/17 09:36:10;;;;;;;;;;;;;;;28.98;31.22;100924.94;5037737;28;1040;-41
2022/06/17 09:38:48;;;;;;;;;;;;;;;28.98;31.16;100930.34;5048800;28;1176;-42
2022/06/17 09:41:21;;;;;;;;;;;;;;;28.99;31.07;100926.59;5033805;28;1942;-41
2022/06/17 09:43:53;;;;;;;;;;;;;;;29.02;30.82;100923.50;5037415;28;1260;-41
2022/06/17 09:46:21;;;;;;;;;;;;;;;29.05;30.44;100926.66;5056179;28;1207;-40
2022/06/17 09:49:05;;;;;;;;;;;;;;;29.05;31.02;100929.38;5055301;28;2486;-42
2022/06/17 09:51:30;;;;;;;;;;;;;;;29.01;30.92;100928.06;5056292;28;1188;-38
2022/06/17 09:54:06;;;;;;;;;;;;;;;29.07;31.06;100926.47;5050592;28;950;-41
2022/06/17 09:56:35;;;;;;;;;;;;;;;29.22;30.93;100926.44;5046424;28;974;-42
2022/06/17 09:59:02;;;;;;;;;;;;;;;29.19;31.29;100924.09;5038589;28;2321;-42
2022/06/17 10:01:27;;;;;;;;;;;;;;;29.18;32.02;100925.97;5037671;28;1921;-41
2022/06/17 10:03:52;;;;;;;;;;;;;;;29.17;32.09;100920.75;5038401;28;2155;-41
2022/06/17 10:06:47;;;;;;;;;;;;;;;29.17;32.68;100926.16;5057735;28;2248;-40
2022/06/17 10:09:31;;;;;;;;;;;;;;;29.18;32.60;100923.25;5039378;28;1927;-40
2022/06/17 10:11:59;;;;;;;;;;;;;;;29.22;32.68;100923.72;5055656;28;1959;-41
2022/06/17 10:14:34;;;;;;;;;;;;;;;29.32;33.09;100916.09;5052409;28;1896;-40
2022/06/17 10:20:01;;;;;;;;;;;;;;;28.90;32.98;100920.41;5054429;28;1148;-41
2022/06/17 10:22:27;;;;;;;;;;;;;;;23.65;40.58;100922.59;5053855;28;1003;-42
2022/06/17 10:25:01;;;;;;;;;;;;;;;22.02;40.42;100909.44;5049358;28;1005;-41
2022/06/17 10:27:45;;;;;;;;;;;;;;;22.20;49.56;100910.53;5034647;28;1211;-42
2022/06/17 10:30:11;;;;;;;;;;;;;;;25.79;38.25;100916.56;5046399;28;1171;-42
2022/06/17 10:32:38;;;;;;;;;;;;;;;26.94;37.07;100907.41;5037742;28;1093;-42
2022/06/17 10:35:04;;;;;;;;;;;;;;;27.65;35.86;100909.13;5036336;28;2776;-42
2022/06/17 10:37:30;;;;;;;;;;;;;;;27.97;35.14;100899.03;5055682;28;1935;-41
2022/06/17 10:39:55;;;;;;;;;;;;;;;28.07;36.90;100908.75;5037372;28;2373;-43
2022/06/17 10:42:20;;;;;;;;;;;;;;;28.57;35.19;100900.06;5054957;28;2240;-41
2022/06/17 10:44:46;;;;;;;;;;;;;;;27.40;38.24;100898.53;5055764;28;1774;-40
2022/06/17 10:47:14;;;;;;;;;;;;;;;25.29;43.20;100898.50;5055101;28;1918;-43
2022/06/17 10:49:40;;;;;;;;;;;;;;;24.28;44.84;100898.34;5053542;28;2234;-42
2022/06/17 10:52:17;;;;;;;;;;;;;;;23.72;45.77;100891.44;5043529;28;2464;-42
2022/06/17 10:54:43;;;;;;;;;;;;;;;25.76;43.59;100889.94;5036247;28;2479;-42
2022/06/17 10:57:09;;;;;;;;;;;;;;;24.96;43.61;100886.88;5048403;28;1865;-42
2022/06/17 10:59:41;;;;;;;;;;;;;;;23.83;45.88;100893.00;5055706;28;2016;-42
2022/06/17 11:02:23;;;;;;;;;;;;;;;24.47;48.69;100891.88;5047230;28;1945;-42
2022/06/17 11:04:49;;;;;;;;;;;;;;;26.50;44.03;100882.69;5032376;28;1849;-42
2022/06/17 11:07:15;;;;;;;;;;;;;;;24.02;46.33;100870.47;5052876;28;2091;-44
2022/06/17 11:09:45;;;;;;;;;;;;;;;23.75;50.16;100877.69;5042887;28;1992;-42
2022/06/17 11:12:19;;;;;;;;;;;;;;;25.98;43.40;100874.91;5037367;28;2411;-43
2022/06/17 11:14:45;;;;;;;;;;;;;;;24.94;44.57;100873.56;5041135;28;2279;-42
2022/06/17 11:17:29;;;;;;;;;;;;;;;23.59;47.17;100881.06;5055735;28;1997;-41
2022/06/17 11:19:55;;;;;;;;;;;;;;;23.97;51.47;100878.97;5057777;28;1989;-42
2022/06/17 11:22:50;;;;;;;;;;;;;;;26.16;44.93;100879.22;5058775;28;1914;-43
2022/06/17 11:25:24;;;;;;;;;;;;;;;24.20;45.77;100878.50;5048659;28;2400;-42
2022/06/17 11:27:54;;;;;;;;;;;;;;;24.51;48.33;100878.94;5053890;28;1972;-42
2022/06/17 11:30:29;;;;;;;;;;;;;;;26.40;41.68;100889.13;5056203;28;1981;-42
2022/06/17 11:32:56;;;;;;;;;;;;;;;24.52;44.42;100886.03;5058066;28;1203;-42
2022/06/17 11:35:21;;;;;;;;;;;;;;;23.48;46.42;100874.97;5056070;28;1353;-42
2022/06/17 11:37:47;;;;;;;;;;;;;;;23.06;47.02;100881.75;5057943;28;1075;-42
2022/06/17 11:40:14;;;;;;;;;;;;;;;24.66;46.44;100887.22;5059145;28;1905;-42
2022/06/17 11:42:43;;;;;;;;;;;;;;;26.26;43.77;100879.03;5052882;28;1050;-42
2022/06/17 11:45:08;;;;;;;;;;;;;;;24.58;44.70;100875.47;5045055;28;879;-43
2022/06/17 11:47:34;;;;;;;;;;;;;;;23.64;46.11;100878.75;5038015;28;1396;-43
2022/06/17 11:50:00;;;;;;;;;;;;;;;23.05;46.95;100877.41;5054750;28;2469;-42
2022/06/17 11:52:32;;;;;;;;;;;;;;;23.91;48.88;100878.78;5058497;28;1872;-42
2022/06/17 11:54:57;;;;;;;;;;;;;;;26.04;41.23;100882.28;5055444;28;1919;-42
2022/06/17 11:57:30;;;;;;;;;;;;;;;25.00;43.40;100880.97;5058311;28;1755;-42
2022/06/17 11:59:57;;;;;;;;;;;;;;;24.25;44.62;100875.31;5057832;28;1958;-43
2022/06/17 12:02:22;;;;;;;;;;;;;;;23.84;49.35;100882.09;5057582;28;1938;-42
2022/06/17 12:04:48;;;;;;;;;;;;;;;25.75;42.00;100883.72;5053651;28;2161;-42
2022/06/17 12:07:28;;;;;;;;;;;;;;;26.52;41.17;100886.91;5051405;28;926;-42
2022/06/17 12:10:17;;;;;;;;;;;;;;;24.30;44.25;100867.63;5051485;28;1276;-43
2022/06/17 12:12:42;;;;;;;;;;;;;;;24.41;47.69;100871.00;5042249;28;1058;-43
2022/06/17 12:15:08;;;;;;;;;;;;;;;26.32;41.01;100862.16;5037943;28;1462;-43
2022/06/17 12:17:34;;;;;;;;;;;;;;;25.99;40.48;100864.97;5056021;28;2203;-41
2022/06/17 12:20:00;;;;;;;;;;;;;;;24.56;43.12;100869.41;5057667;28;1981;-42
2022/06/17 12:22:28;;;;;;;;;;;;;;;24.26;48.25;100860.88;5049926;28;1840;-42
2022/06/17 12:24:56;;;;;;;;;;;;;;;26.16;41.13;100863.06;5039980;28;2182;-43
2022/06/17 12:27:21;;;;;;;;;;;;;;;26.57;40.21;100863.94;5057354;28;1875;-43
2022/06/17 12:29:59;;;;;;;;;;;;;;;24.89;42.78;100854.34;5051846;28;1994;-42
2022/06/17 12:32:30;;;;;;;;;;;;;;;24.74;46.77;100854.97;5027279;28;2103;-42
2022/06/17 12:34:56;;;;;;;;;;;;;;;26.34;40.39;100857.44;5052719;28;867;-43
2022/06/17 12:37:27;;;;;;;;;;;;;;;25.70;40.82;100861.84;5053881;28;986;-43
2022/06/17 12:39:55;;;;;;;;;;;;;;;24.55;42.97;100854.28;5054966;28;1168;-42
2022/06/17 12:42:41;;;;;;;;;;;;;;;24.92;44.92;100854.88;5055205;28;974;-42
2022/06/17 12:45:19;;;;;;;;;;;;;;;26.55;39.73;100849.78;5056345;28;1115;-42
2022/06/17 12:47:56;;;;;;;;;;;;;;;25.27;42.08;100857.47;5057375;28;1028;-41
2022/06/17 12:53:39;;;;;;;;;;;;;;;25.66;42.28;100852.38;5036297;28;986;-42
2022/06/17 12:56:23;;;;;;;;;;;;;;;26.65;42.04;100843.16;5028298;28;1018;-42
2022/06/17 12:59:07;;;;;;;;;;;;;;;24.56;42.89;100844.34;5052764;28;1009;-43
2022/06/17 13:01:47;;;;;;;;;;;;;;;24.51;46.33;100839.44;5056740;28;2499;-42